createdAt,value
2022-08-17T00:04:51.173Z,18.20
2022-08-17T00:09:48.512Z,18.10
2022-08-17T00:14:45.804Z,18.00
2022-08-17T00:19:43.430Z,18.00
2022-08-17T00:24:41.509Z,18.00
2022-08-17T00:29:41.286Z,18.00
2022-08-17T00:34:39.712Z,18.00
2022-08-17T00:39:40.255Z,17.80
2022-08-17T00:44:40.224Z,17.90
2022-08-17T00:49:38.832Z,17.90
2022-08-17T00:54:43.032Z,17.70
2022-08-17T00:59:50.575Z,17.70
2022-08-17T01:05:01.880Z,17.60
2022-08-17T01:10:00.930Z,17.70
2022-08-17T01:14:58.176Z,17.70
2022-08-17T01:19:55.958Z,17.50
2022-08-17T01:24:59.178Z,17.60
2022-08-17T01:30:01.891Z,17.50
2022-08-17T01:35:00.946Z,17.40
2022-08-17T01:40:04.505Z,17.20
2022-08-17T01:45:08.655Z,17.20
2022-08-17T01:50:08.809Z,17.10
2022-08-17T01:55:07.415Z,17.20
2022-08-17T02:00:09.728Z,17.30
2022-08-17T02:05:07.960Z,17.10
2022-08-17T02:10:06.781Z,17.10
2022-08-17T02:15:17.582Z,17.00
2022-08-17T02:20:16.242Z,16.90
2022-08-17T02:25:35.064Z,16.90
2022-08-17T02:31:01.639Z,16.70
2022-08-17T02:35:51.009Z,16.60
2022-08-17T02:40:48.390Z,16.70
2022-08-17T02:45:46.907Z,16.80
2022-08-17T02:50:44.278Z,16.90
2022-08-17T02:55:43.223Z,16.70
2022-08-17T03:00:48.524Z,16.70
2022-08-17T03:05:48.643Z,16.50
2022-08-17T03:10:47.043Z,16.40
2022-08-17T03:15:45.759Z,16.40
2022-08-17T03:20:43.449Z,16.30
2022-08-17T03:25:44.205Z,16.20
2022-08-17T03:30:42.013Z,16.30
2022-08-17T03:35:40.879Z,16.30
2022-08-17T03:40:56.674Z,16.20
2022-08-17T03:46:28.386Z,16.20
2022-08-17T03:51:52.594Z,16.10
2022-08-17T03:57:02.625Z,15.90
2022-08-17T04:02:09.717Z,15.80
2022-08-17T04:07:07.537Z,15.90
2022-08-17T04:12:05.451Z,16.00
2022-08-17T04:17:03.039Z,15.90
2022-08-17T04:22:00.583Z,15.90
2022-08-17T04:26:58.543Z,16.00
2022-08-17T04:31:56.043Z,16.00
2022-08-17T04:36:53.214Z,16.10
2022-08-17T04:42:17.179Z,16.00
2022-08-17T04:47:14.785Z,16.20
2022-08-17T04:52:29.750Z,16.20
2022-08-17T04:57:29.346Z,16.40
2022-08-17T05:02:49.995Z,16.80
2022-08-17T05:07:48.070Z,16.90
2022-08-17T05:12:45.311Z,17.20
2022-08-17T05:17:45.640Z,17.30
2022-08-17T05:22:55.405Z,17.60
2022-08-17T05:27:53.451Z,17.80
2022-08-17T05:32:56.031Z,18.10
2022-08-17T05:37:53.964Z,18.40
2022-08-17T05:43:06.385Z,18.50
2022-08-17T05:48:04.029Z,18.80
2022-08-17T05:53:41.183Z,19.10
2022-08-17T05:59:00.808Z,19.30
2022-08-17T06:04:10.363Z,21.90
2022-08-17T06:09:46.858Z,26.70
2022-08-17T06:15:04.299Z,29.90
2022-08-17T06:20:13.384Z,31.00
2022-08-17T06:25:45.894Z,31.60
2022-08-17T06:31:12.909Z,31.80
2022-08-17T06:36:46.374Z,32.70
2022-08-17T06:43:02.055Z,33.50
2022-08-17T06:47:54.758Z,33.00
2022-08-17T06:53:02.971Z,32.00
2022-08-17T06:58:15.615Z,33.30
2022-08-17T07:03:39.163Z,29.60
2022-08-17T07:08:55.124Z,26.40
2022-08-17T07:13:52.337Z,25.10
2022-08-17T07:18:54.879Z,24.70
2022-08-17T07:24:29.670Z,27.70
2022-08-17T07:29:27.961Z,30.80
2022-08-17T07:34:25.179Z,32.40
2022-08-17T07:39:28.247Z,34.00
2022-08-17T07:44:25.604Z,35.40
2022-08-17T07:49:34.321Z,36.20
2022-08-17T07:54:36.943Z,37.50
2022-08-17T07:59:41.283Z,36.60
2022-08-17T08:05:01.850Z,38.50
2022-08-17T08:10:01.887Z,38.70
2022-08-17T08:15:13.943Z,38.60
2022-08-17T08:20:52.594Z,37.80
2022-08-17T08:25:43.533Z,37.20
2022-08-17T08:30:52.977Z,37.70
2022-08-17T08:36:08.812Z,37.50
2022-08-17T08:41:22.859Z,37.10
2022-08-17T08:46:54.070Z,37.60
2022-08-17T08:52:01.407Z,38.00
2022-08-17T08:57:29.415Z,37.90
2022-08-17T09:02:37.287Z,38.40
2022-08-17T09:08:02.021Z,38.70
2022-08-17T09:13:17.892Z,37.40
2022-08-17T09:19:02.354Z,37.10
2022-08-17T09:24:05.083Z,36.30
2022-08-17T09:29:08.885Z,36.70
2022-08-17T09:34:13.044Z,37.10
2022-08-17T09:39:43.459Z,37.10
2022-08-17T09:44:55.475Z,36.40
2022-08-17T09:50:03.820Z,36.10
2022-08-17T09:55:18.139Z,35.30
2022-08-17T10:00:29.725Z,34.50
2022-08-17T10:05:48.902Z,33.90
2022-08-17T10:10:56.568Z,34.10
2022-08-17T10:16:09.294Z,34.70
2022-08-17T10:21:31.593Z,35.10
2022-08-17T10:26:40.417Z,33.60
2022-08-17T10:32:01.870Z,33.30
2022-08-17T10:37:20.032Z,33.10
2022-08-17T10:42:59.249Z,33.50
2022-08-17T10:48:07.015Z,32.50
2022-08-17T10:53:04.669Z,31.70
2022-08-17T10:58:22.102Z,31.70
2022-08-17T11:03:23.748Z,31.90
2022-08-17T11:08:36.357Z,31.70
2022-08-17T11:13:45.384Z,31.10
2022-08-17T11:19:27.178Z,30.60
2022-08-17T11:24:38.633Z,30.90
2022-08-17T11:30:02.318Z,30.80
2022-08-17T11:35:12.081Z,30.60
2022-08-17T11:40:24.669Z,31.00
2022-08-17T11:45:34.607Z,31.40
2022-08-17T11:51:05.814Z,31.40
2022-08-17T11:56:23.075Z,31.10
2022-08-17T12:01:23.100Z,31.20
2022-08-17T12:06:42.692Z,31.40
2022-08-17T12:12:13.045Z,31.40
2022-08-17T12:17:39.123Z,31.30
2022-08-17T12:22:55.975Z,31.10
2022-08-17T12:28:05.008Z,31.10
2022-08-17T12:33:11.462Z,31.40
2022-08-17T12:38:32.435Z,31.40
2022-08-17T12:43:33.028Z,31.40
2022-08-17T12:48:32.145Z,31.10
2022-08-17T12:53:35.293Z,31.10
2022-08-17T12:58:37.508Z,31.00
2022-08-17T13:03:45.916Z,31.30
2022-08-17T13:08:48.190Z,31.40
2022-08-17T13:13:53.082Z,31.40
2022-08-17T13:19:04.908Z,31.40
2022-08-17T13:24:17.750Z,31.20
2022-08-17T13:29:26.078Z,31.20
2022-08-17T13:34:27.005Z,31.40
2022-08-17T13:39:25.697Z,31.40
2022-08-17T13:44:33.495Z,31.60
2022-08-17T13:49:48.248Z,31.70
2022-08-17T13:54:51.902Z,31.60
2022-08-17T14:00:30.759Z,31.30
2022-08-17T14:05:29.112Z,31.20
2022-08-17T14:10:27.413Z,31.20
2022-08-17T14:15:54.778Z,31.50
2022-08-17T14:20:43.564Z,31.90
2022-08-17T14:25:40.868Z,32.20
2022-08-17T14:30:41.830Z,32.40
2022-08-17T14:35:39.300Z,32.40
2022-08-17T14:40:38.069Z,32.00
2022-08-17T14:45:35.520Z,31.90
2022-08-17T14:50:35.565Z,31.60
2022-08-17T14:55:34.064Z,31.40
2022-08-17T15:00:31.734Z,31.20
2022-08-17T15:05:35.585Z,31.30
2022-08-17T15:10:33.601Z,31.40
2022-08-17T15:15:31.457Z,31.50
2022-08-17T15:20:30.163Z,31.40
2022-08-17T15:25:28.905Z,31.40
2022-08-17T15:30:27.384Z,31.50
2022-08-17T15:35:29.048Z,31.30
2022-08-17T15:40:26.865Z,31.30
2022-08-17T15:45:28.430Z,31.20
2022-08-17T15:50:26.001Z,31.10
2022-08-17T15:55:24.390Z,31.10
2022-08-17T16:00:24.258Z,31.20
2022-08-17T16:05:24.229Z,31.00
2022-08-17T16:10:23.574Z,30.70
2022-08-17T16:15:37.721Z,30.30
2022-08-17T16:20:35.165Z,30.10
2022-08-17T16:25:47.127Z,30.10
2022-08-17T16:30:50.720Z,30.20
2022-08-17T16:35:48.016Z,30.00
2022-08-17T16:40:45.265Z,30.00
2022-08-17T16:45:43.018Z,29.90
2022-08-17T16:50:40.628Z,29.70
2022-08-17T16:55:38.685Z,29.60
2022-08-17T17:00:37.122Z,29.60
2022-08-17T17:05:59.169Z,29.60
2022-08-17T17:10:57.589Z,29.40
2022-08-17T17:16:14.900Z,29.20
2022-08-17T17:21:20.189Z,29.00
2022-08-17T17:26:17.418Z,28.70
2022-08-17T17:31:21.529Z,28.40
2022-08-17T17:36:25.155Z,28.10
2022-08-17T17:41:30.188Z,28.00
2022-08-17T17:46:33.488Z,27.80
2022-08-17T17:52:02.807Z,27.50
2022-08-17T17:57:32.058Z,27.10
2022-08-17T18:02:51.511Z,26.80
2022-08-17T18:08:21.579Z,26.40
2022-08-17T18:13:55.578Z,26.10
2022-08-17T18:18:53.838Z,25.80
2022-08-17T18:24:00.833Z,25.60
2022-08-17T18:28:58.353Z,25.50
2022-08-17T18:34:46.523Z,25.60
2022-08-17T18:39:45.435Z,25.60
2022-08-17T18:44:44.563Z,25.40
2022-08-17T18:49:53.760Z,25.20
2022-08-17T18:55:03.039Z,24.90
2022-08-17T19:33:31.144Z,24.00
2022-08-17T19:38:57.854Z,23.70
2022-08-17T19:50:55.584Z,23.80
2022-08-17T19:56:17.973Z,23.70
2022-08-17T20:01:45.975Z,23.60
2022-08-17T20:06:49.524Z,23.50
2022-08-17T20:11:55.122Z,23.40
2022-08-17T20:16:53.151Z,23.50
2022-08-17T20:22:00.242Z,23.40
2022-08-17T20:27:10.008Z,23.30
2022-08-17T20:32:23.717Z,23.30
2022-08-17T20:37:28.632Z,23.30
2022-08-17T20:42:34.058Z,23.50
2022-08-17T20:48:00.805Z,23.60
2022-08-17T20:53:15.061Z,23.80
2022-08-17T20:58:31.562Z,24.00
2022-08-17T21:03:50.915Z,24.20
2022-08-17T21:51:25.534Z,24.50
2022-08-17T21:56:30.828Z,24.60
2022-08-17T22:01:45.643Z,24.60
2022-08-17T22:06:57.229Z,24.60
2022-08-17T22:12:02.187Z,24.40
2022-08-17T22:17:09.245Z,24.30
2022-08-17T22:22:21.119Z,24.10
2022-08-17T22:27:19.550Z,24.00
2022-08-17T22:32:39.064Z,24.00
2022-08-17T22:37:39.266Z,23.80
2022-08-17T22:42:48.953Z,23.70
2022-08-17T22:47:49.100Z,23.70
2022-08-17T22:53:16.199Z,23.80
2022-08-17T22:58:38.401Z,23.80
2022-08-17T23:03:57.319Z,23.50
2022-08-17T23:08:56.681Z,23.30
2022-08-17T23:13:56.892Z,23.10
2022-08-17T23:18:54.690Z,23.00
2022-08-17T23:23:53.503Z,22.80
2022-08-17T23:28:55.900Z,22.70
2022-08-17T23:33:55.140Z,22.60
2022-08-17T23:38:53.743Z,22.50
2022-08-17T23:43:53.317Z,22.30
2022-08-17T23:48:54.910Z,22.30
2022-08-17T23:53:58.332Z,22.20
2022-08-17T23:58:58.349Z,22.20
